createdAt,value
2019-01-13T00:04:42.128Z,57.34
2019-01-13T00:09:46.448Z,57.34
2019-01-13T00:14:50.776Z,57.90
2019-01-13T00:19:55.096Z,58.51
2019-01-13T00:24:59.274Z,57.65
2019-01-13T00:30:03.993Z,57.44
2019-01-13T00:35:08.545Z,57.74
2019-01-13T00:40:14.338Z,57.89
2019-01-13T00:45:18.604Z,58.18
2019-01-13T00:50:22.843Z,58.29
2019-01-13T00:55:27.068Z,57.60
2019-01-13T01:00:31.297Z,57.65
2019-01-13T01:05:35.560Z,57.65
2019-01-13T01:10:39.794Z,57.65
2019-01-13T01:15:44.111Z,57.83
2019-01-13T01:20:48.428Z,58.09
2019-01-13T01:25:52.753Z,57.51
2019-01-13T01:30:57.033Z,57.45
2019-01-13T01:36:01.309Z,58.10
2019-01-13T01:41:05.574Z,57.82
2019-01-13T01:46:09.776Z,57.32
2019-01-13T01:51:13.859Z,57.89
2019-01-13T01:56:17.987Z,57.89
2019-01-13T02:01:22.366Z,57.92
2019-01-13T02:06:26.633Z,58.53
2019-01-13T02:11:31.121Z,58.53
2019-01-13T02:16:35.295Z,57.38
2019-01-13T02:21:39.629Z,57.38
2019-01-13T02:26:43.856Z,57.92
2019-01-13T02:31:48.138Z,57.47
2019-01-13T02:36:52.382Z,57.63
2019-01-13T02:41:56.551Z,57.88
2019-01-13T02:47:00.800Z,58.22
2019-01-13T02:52:05.085Z,57.76
2019-01-13T02:57:09.458Z,57.87
2019-01-13T03:02:13.699Z,58.10
2019-01-13T03:07:18.086Z,58.10
2019-01-13T03:12:22.451Z,58.18
2019-01-13T03:17:26.768Z,58.46
2019-01-13T03:22:31.063Z,58.71
2019-01-13T03:27:35.447Z,58.71
2019-01-13T03:32:39.814Z,58.75
2019-01-13T03:37:44.107Z,58.01
2019-01-13T03:42:48.747Z,58.50
2019-01-13T03:47:53.003Z,58.60
2019-01-13T03:53:00.337Z,58.07
2019-01-13T03:58:04.744Z,58.52
2019-01-13T04:03:09.019Z,59.07
2019-01-13T04:08:13.310Z,58.86
2019-01-13T04:13:17.521Z,58.83
2019-01-13T04:18:21.872Z,58.26
2019-01-13T04:23:26.204Z,58.51
2019-01-13T04:28:30.518Z,58.53
2019-01-13T04:33:34.835Z,58.87
2019-01-13T04:38:39.007Z,58.87
2019-01-13T04:43:43.307Z,59.03
2019-01-13T04:48:47.465Z,58.75
2019-01-13T04:53:51.871Z,58.75
2019-01-13T04:58:56.106Z,58.89
2019-01-13T05:04:00.285Z,59.23
2019-01-13T05:09:06.855Z,59.23
2019-01-13T05:14:11.068Z,59.43
2019-01-13T05:19:15.343Z,59.43
2019-01-13T05:24:19.606Z,59.07
2019-01-13T05:29:23.931Z,59.07
2019-01-13T05:34:28.086Z,59.64
2019-01-13T05:39:32.442Z,59.76
2019-01-13T05:44:36.744Z,59.99
2019-01-13T05:49:41.017Z,59.27
2019-01-13T05:54:45.431Z,58.85
2019-01-13T05:59:49.716Z,58.85
2019-01-13T06:04:53.955Z,59.00
2019-01-13T06:09:58.235Z,59.60
2019-01-13T06:15:02.682Z,59.46
2019-01-13T06:20:10.432Z,59.65
2019-01-13T06:25:14.917Z,59.65
2019-01-13T06:30:23.750Z,59.69
2019-01-13T06:35:28.057Z,59.64
2019-01-13T06:40:32.377Z,59.88
2019-01-13T06:45:36.704Z,59.43
2019-01-13T06:50:41.103Z,59.92
2019-01-13T06:55:45.574Z,59.92
2019-01-13T07:00:49.736Z,59.53
2019-01-13T07:05:53.856Z,59.53
2019-01-13T07:10:57.961Z,59.70
2019-01-13T07:16:02.166Z,60.21
2019-01-13T07:21:06.328Z,60.32
2019-01-13T07:26:10.676Z,60.34
2019-01-13T07:31:14.815Z,60.30
2019-01-13T07:36:18.884Z,60.33
2019-01-13T07:41:23.132Z,60.33
2019-01-13T07:46:27.363Z,60.59
2019-01-13T07:51:31.533Z,60.80
2019-01-13T07:56:35.646Z,61.03
2019-01-13T08:01:39.812Z,60.74
2019-01-13T08:06:44.087Z,61.55
2019-01-13T08:11:48.420Z,60.20
2019-01-13T08:16:52.471Z,60.20
2019-01-13T08:21:56.511Z,57.91
2019-01-13T08:27:00.741Z,58.35
2019-01-13T08:32:04.921Z,58.46
2019-01-13T08:37:09.008Z,58.49
2019-01-13T08:42:13.017Z,58.74
2019-01-13T08:47:17.116Z,54.28
2019-01-13T08:52:21.547Z,54.28
2019-01-13T08:57:25.770Z,55.94
2019-01-13T09:02:32.309Z,57.05
2019-01-13T09:07:35.810Z,58.19
2019-01-13T09:12:40.323Z,57.97
2019-01-13T09:17:44.501Z,59.08
2019-01-13T09:22:48.786Z,58.79
2019-01-13T09:27:52.820Z,58.79
2019-01-13T09:32:56.926Z,59.41
2019-01-13T09:38:01.142Z,59.76
2019-01-13T09:43:06.053Z,60.74
2019-01-13T09:48:10.172Z,60.78
2019-01-13T09:53:14.525Z,60.95
2019-01-13T09:58:18.651Z,60.95
2019-01-13T10:03:22.851Z,60.53
2019-01-13T10:08:27.018Z,60.13
2019-01-13T10:13:31.055Z,59.83
2019-01-13T10:18:35.098Z,60.38
2019-01-13T10:23:39.193Z,60.73
2019-01-13T10:28:43.576Z,60.73
2019-01-13T10:33:47.753Z,61.39
2019-01-13T10:38:51.925Z,61.38
2019-01-13T10:43:56.174Z,61.18
2019-01-13T10:49:00.295Z,61.74
2019-01-13T10:54:09.124Z,61.74
2019-01-13T10:59:10.633Z,60.62
2019-01-13T11:04:14.683Z,60.36
2019-01-13T11:09:18.833Z,60.75
2019-01-13T11:14:22.848Z,60.85
2019-01-13T11:19:26.985Z,60.64
2019-01-13T11:24:31.223Z,60.84
2019-01-13T11:29:35.239Z,60.84
2019-01-13T11:34:39.321Z,60.72
2019-01-13T11:39:43.438Z,60.90
2019-01-13T11:44:47.662Z,61.33
2019-01-13T11:49:51.837Z,61.33
2019-01-13T11:54:55.891Z,60.60
2019-01-13T12:00:00.182Z,60.04
2019-01-13T12:05:05.036Z,60.34
2019-01-13T12:10:11.440Z,60.02
2019-01-13T12:15:16.718Z,60.02
2019-01-13T12:20:22.288Z,60.92
2019-01-13T12:25:26.433Z,60.92
2019-01-13T12:30:31.858Z,60.86
2019-01-13T12:35:35.968Z,61.45
2019-01-13T12:40:40.010Z,61.22
2019-01-13T12:45:44.135Z,61.29
2019-01-13T12:50:48.140Z,61.63
2019-01-13T12:55:52.437Z,61.54
2019-01-13T13:00:56.579Z,61.20
2019-01-13T13:06:00.631Z,61.25
2019-01-13T13:11:04.829Z,60.89
2019-01-13T13:16:09.025Z,60.86
2019-01-13T13:21:13.184Z,61.12
2019-01-13T13:26:17.299Z,61.60
2019-01-13T13:31:21.616Z,61.90
2019-01-13T13:36:25.768Z,61.90
2019-01-13T13:41:29.825Z,62.63
2019-01-13T13:46:34.075Z,62.59
2019-01-13T13:51:38.183Z,62.59
2019-01-13T13:56:42.295Z,62.85
2019-01-13T14:01:46.489Z,61.81
2019-01-13T14:06:51.705Z,61.74
2019-01-13T14:11:56.319Z,60.95
2019-01-13T14:17:00.407Z,61.06
2019-01-13T14:22:04.611Z,59.68
2019-01-13T14:27:08.801Z,60.18
2019-01-13T14:32:12.987Z,60.18
2019-01-13T14:37:17.060Z,59.91
2019-01-13T14:42:21.118Z,59.91
2019-01-13T14:47:25.363Z,59.67
2019-01-13T14:52:29.491Z,60.18
2019-01-13T14:57:33.804Z,59.40
2019-01-13T15:02:37.860Z,59.40
2019-01-13T15:07:42.118Z,59.40
2019-01-13T15:12:46.295Z,59.47
2019-01-13T15:17:50.518Z,60.09
2019-01-13T15:22:54.754Z,60.09
2019-01-13T15:27:59.342Z,59.72
2019-01-13T15:33:03.604Z,59.73
2019-01-13T15:38:09.067Z,59.73
2019-01-13T15:43:13.214Z,59.60
2019-01-13T15:48:17.280Z,59.54
2019-01-13T15:53:21.373Z,59.54
2019-01-13T15:58:25.577Z,59.43
2019-01-13T16:03:29.748Z,59.80
2019-01-13T16:08:33.851Z,59.80
2019-01-13T16:13:37.908Z,59.17
2019-01-13T16:18:41.973Z,59.50
2019-01-13T16:23:46.111Z,59.90
2019-01-13T16:28:50.256Z,59.90
2019-01-13T16:33:54.426Z,60.09
2019-01-13T16:38:58.599Z,59.75
2019-01-13T16:44:02.729Z,59.20
2019-01-13T16:49:07.033Z,59.79
2019-01-13T16:54:11.089Z,60.15
2019-01-13T16:59:15.257Z,60.31
2019-01-13T17:04:19.389Z,60.31
2019-01-13T17:09:23.446Z,59.74
2019-01-13T17:14:27.492Z,59.71
2019-01-13T17:19:33.411Z,59.79
2019-01-13T17:24:37.472Z,59.78
2019-01-13T17:29:41.483Z,60.13
2019-01-13T17:34:45.491Z,60.13
2019-01-13T17:39:49.578Z,59.48
2019-01-13T17:44:53.638Z,59.56
2019-01-13T17:49:57.678Z,59.47
2019-01-13T17:55:01.787Z,59.16
2019-01-13T18:00:11.601Z,59.16
2019-01-13T18:05:15.703Z,59.46
2019-01-13T18:10:19.961Z,58.78
2019-01-13T18:15:24.122Z,58.92
2019-01-13T18:20:28.212Z,58.62
2019-01-13T18:25:32.380Z,59.08
2019-01-13T18:30:36.405Z,58.37
2019-01-13T18:35:40.617Z,58.98
2019-01-13T18:40:44.777Z,58.65
2019-01-13T18:45:48.966Z,58.49
2019-01-13T18:50:53.091Z,58.49
2019-01-13T18:55:57.102Z,58.53
2019-01-13T19:01:02.913Z,58.21
2019-01-13T19:06:07.012Z,58.21
2019-01-13T19:11:37.991Z,58.71
2019-01-13T19:16:59.040Z,58.23
2019-01-13T19:22:04.597Z,58.23
2019-01-13T19:27:10.662Z,57.73
2019-01-13T19:32:14.687Z,58.34
2019-01-13T19:37:18.904Z,57.88
2019-01-13T19:42:23.011Z,57.88
2019-01-13T19:47:27.111Z,58.97
2019-01-13T19:52:31.223Z,58.97
2019-01-13T19:57:35.326Z,59.33
2019-01-13T20:02:39.424Z,59.22
2019-01-13T20:07:43.529Z,58.80
2019-01-13T20:12:47.689Z,58.95
2019-01-13T20:17:51.777Z,59.33
2019-01-13T20:22:56.005Z,58.49
2019-01-13T20:28:00.112Z,58.49
2019-01-13T20:33:05.582Z,59.70
2019-01-13T20:38:09.768Z,59.62
2019-01-13T20:43:13.813Z,59.73
2019-01-13T20:48:17.948Z,60.25
2019-01-13T20:53:22.268Z,60.25
2019-01-13T20:58:26.288Z,59.64
2019-01-13T21:03:30.499Z,59.08
2019-01-13T21:08:34.637Z,58.87
2019-01-13T21:13:38.737Z,58.87
2019-01-13T21:18:42.865Z,61.14
2019-01-13T21:23:46.878Z,60.76
2019-01-13T21:28:50.908Z,58.48
2019-01-13T21:33:54.931Z,58.66
2019-01-13T21:38:59.106Z,61.24
2019-01-13T21:44:03.286Z,61.24
2019-01-13T21:49:07.377Z,61.40
2019-01-13T21:54:11.557Z,60.32
2019-01-13T21:59:15.664Z,59.21
2019-01-13T22:04:19.671Z,61.49
2019-01-13T22:09:23.802Z,61.41
2019-01-13T22:14:29.267Z,61.45
2019-01-13T22:19:33.376Z,61.40
2019-01-13T22:24:37.505Z,61.73
2019-01-13T22:29:41.634Z,61.54
2019-01-13T22:34:45.890Z,62.33
2019-01-13T22:39:49.984Z,60.89
2019-01-13T22:44:53.991Z,61.62
2019-01-13T22:49:58.034Z,59.42
2019-01-13T22:55:02.273Z,62.11
2019-01-13T23:00:38.419Z,62.11
2019-01-13T23:05:42.437Z,60.00
2019-01-13T23:10:46.542Z,60.09
2019-01-13T23:15:50.728Z,60.04
2019-01-13T23:20:54.954Z,58.24
2019-01-13T23:25:58.966Z,58.05
2019-01-13T23:31:03.144Z,58.05
2019-01-13T23:36:07.279Z,59.07
2019-01-13T23:41:11.533Z,57.82
2019-01-13T23:46:15.904Z,59.64
2019-01-13T23:51:19.944Z,59.64
2019-01-13T23:56:23.989Z,57.89
